sensor_id;sensor_type;location;lat;lon;timestamp;pressure;altitude;pressure_sealevel;temperature;humidity
54503;BME280;40411;50.090;21.954;2024-03-02T00:02:25;64539.78;;;9.48;100.00
54503;BME280;40411;50.090;21.954;2024-03-02T00:04:51;64585.47;;;9.69;100.00
54503;BME280;40411;50.090;21.954;2024-03-02T00:07:17;64503.97;;;9.90;100.00
54503;BME280;40411;50.090;21.954;2024-03-02T00:09:43;64537.59;;;9.70;100.00
54503;BME280;40411;50.090;21.954;2024-03-02T00:12:15;64490.69;;;9.70;100.00
54503;BME280;40411;50.090;21.954;2024-03-02T00:14:41;64545.13;;;9.58;100.00
54503;BME280;40411;50.090;21.954;2024-03-02T00:17:17;64550.56;;;9.53;100.00
54503;BME280;40411;50.090;21.954;2024-03-02T00:19:46;64534.75;;;9.82;100.00
54503;BME280;40411;50.090;21.954;2024-03-02T00:22:12;64534.94;;;9.77;100.00
54503;BME280;40411;50.090;21.954;2024-03-02T00:24:39;64558.19;;;9.51;100.00
54503;BME280;40411;50.090;21.954;2024-03-02T00:27:07;64608.50;;;9.39;100.00
54503;BME280;40411;50.090;21.954;2024-03-02T00:29:34;64524.59;;;9.63;100.00
54503;BME280;40411;50.090;21.954;2024-03-02T00:32:01;64449.53;;;9.95;99.66
54503;BME280;40411;50.090;21.954;2024-03-02T00:34:26;64493.47;;;9.97;99.64
54503;BME280;40411;50.090;21.954;2024-03-02T00:36:52;64507.34;;;9.85;100.00
54503;BME280;40411;50.090;21.954;2024-03-02T00:39:18;64487.91;;;9.92;100.00
54503;BME280;40411;50.090;21.954;2024-03-02T00:41:44;64537.56;;;9.77;100.00
54503;BME280;40411;50.090;21.954;2024-03-02T00:44:15;64554.72;;;9.76;100.00
54503;BME280;40411;50.090;21.954;2024-03-02T00:46:42;64499.91;;;9.83;100.00
54503;BME280;40411;50.090;21.954;2024-03-02T00:49:21;64518.97;;;9.72;100.00
54503;BME280;40411;50.090;21.954;2024-03-02T00:51:52;64605.91;;;9.39;100.00
54503;BME280;40411;50.090;21.954;2024-03-02T00:54:23;64475.50;;;10.09;98.04
54503;BME280;40411;50.090;21.954;2024-03-02T00:56:51;64514.19;;;9.63;100.00
54503;BME280;40411;50.090;21.954;2024-03-02T00:59:17;64540.59;;;9.68;100.00
54503;BME280;40411;50.090;21.954;2024-03-02T01:01:43;64606.47;;;9.40;100.00
54503;BME280;40411;50.090;21.954;2024-03-02T01:04:09;64574.22;;;9.49;100.00
54503;BME280;40411;50.090;21.954;2024-03-02T01:06:35;64568.63;;;9.51;100.00
54503;BME280;40411;50.090;21.954;2024-03-02T01:09:02;64526.88;;;9.58;100.00
54503;BME280;40411;50.090;21.954;2024-03-02T01:11:31;64586.81;;;9.58;100.00
54503;BME280;40411;50.090;21.954;2024-03-02T01:13:57;64557.84;;;9.46;100.00
54503;BME280;40411;50.090;21.954;2024-03-02T01:16:23;64536.84;;;9.36;100.00
54503;BME280;40411;50.090;21.954;2024-03-02T01:18:49;64565.69;;;9.38;100.00
54503;BME280;40411;50.090;21.954;2024-03-02T01:21:15;64579.44;;;9.42;100.00
54503;BME280;40411;50.090;21.954;2024-03-02T01:23:41;64559.84;;;9.52;100.00
54503;BME280;40411;50.090;21.954;2024-03-02T01:26:07;64538.03;;;9.61;100.00
54503;BME280;40411;50.090;21.954;2024-03-02T01:28:33;64565.28;;;9.48;100.00
54503;BME280;40411;50.090;21.954;2024-03-02T01:30:59;64464.78;;;9.73;100.00
54503;BME280;40411;50.090;21.954;2024-03-02T01:33:25;64562.50;;;9.45;100.00
54503;BME280;40411;50.090;21.954;2024-03-02T01:35:51;64559.00;;;9.32;100.00
54503;BME280;40411;50.090;21.954;2024-03-02T01:38:16;64553.56;;;9.44;100.00
54503;BME280;40411;50.090;21.954;2024-03-02T01:40:43;64612.28;;;9.19;100.00
54503;BME280;40411;50.090;21.954;2024-03-02T01:43:11;64611.06;;;9.47;100.00
54503;BME280;40411;50.090;21.954;2024-03-02T01:45:38;64624.59;;;9.16;100.00
54503;BME280;40411;50.090;21.954;2024-03-02T01:48:05;64568.69;;;9.36;100.00
54503;BME280;40411;50.090;21.954;2024-03-02T01:50:33;64607.25;;;9.29;100.00
54503;BME280;40411;50.090;21.954;2024-03-02T01:53:00;64623.78;;;9.34;100.00
54503;BME280;40411;50.090;21.954;2024-03-02T01:55:26;64565.34;;;9.33;100.00
54503;BME280;40411;50.090;21.954;2024-03-02T01:57:54;64621.78;;;9.28;100.00
54503;BME280;40411;50.090;21.954;2024-03-02T02:00:21;64571.47;;;9.39;100.00
54503;BME280;40411;50.090;21.954;2024-03-02T02:02:50;64629.19;;;9.30;100.00
54503;BME280;40411;50.090;21.954;2024-03-02T02:05:17;64573.84;;;9.51;100.00
54503;BME280;40411;50.090;21.954;2024-03-02T02:07:43;64544.81;;;9.46;100.00
54503;BME280;40411;50.090;21.954;2024-03-02T02:10:10;64543.28;;;9.54;100.00
54503;BME280;40411;50.090;21.954;2024-03-02T02:12:36;64603.38;;;9.11;100.00
54503;BME280;40411;50.090;21.954;2024-03-02T02:15:04;64534.38;;;9.46;100.00
54503;BME280;40411;50.090;21.954;2024-03-02T02:17:31;64542.06;;;9.36;100.00
54503;BME280;40411;50.090;21.954;2024-03-02T02:19:57;64566.78;;;9.47;100.00
54503;BME280;40411;50.090;21.954;2024-03-02T02:22:23;64565.69;;;9.38;100.00
54503;BME280;40411;50.090;21.954;2024-03-02T02:24:49;64561.25;;;9.34;100.00
54503;BME280;40411;50.090;21.954;2024-03-02T02:27:15;64597.13;;;9.48;100.00
54503;BME280;40411;50.090;21.954;2024-03-02T02:29:41;64578.22;;;9.24;100.00
54503;BME280;40411;50.090;21.954;2024-03-02T02:32:07;64523.50;;;9.31;100.00
54503;BME280;40411;50.090;21.954;2024-03-02T02:34:33;64662.97;;;8.99;100.00
54503;BME280;40411;50.090;21.954;2024-03-02T02:36:59;64575.72;;;9.40;100.00
54503;BME280;40411;50.090;21.954;2024-03-02T02:39:25;64623.44;;;9.29;100.00
54503;BME280;40411;50.090;21.954;2024-03-02T02:41:51;64676.94;;;8.97;100.00
54503;BME280;40411;50.090;21.954;2024-03-02T02:44:17;64653.50;;;8.90;100.00
54503;BME280;40411;50.090;21.954;2024-03-02T02:46:43;64614.94;;;9.12;100.00
54503;BME280;40411;50.090;21.954;2024-03-02T02:49:09;64638.34;;;9.19;100.00
54503;BME280;40411;50.090;21.954;2024-03-02T02:51:35;64662.22;;;8.88;100.00
54503;BME280;40411;50.090;21.954;2024-03-02T02:54:01;64699.25;;;8.75;100.00
54503;BME280;40411;50.090;21.954;2024-03-02T02:56:26;64694.97;;;8.80;100.00
54503;BME280;40411;50.090;21.954;2024-03-02T02:58:53;64626.13;;;8.93;100.00
54503;BME280;40411;50.090;21.954;2024-03-02T03:01:18;64547.63;;;9.41;100.00
54503;BME280;40411;50.090;21.954;2024-03-02T03:03:45;64603.09;;;8.91;100.00
54503;BME280;40411;50.090;21.954;2024-03-02T03:06:11;64650.31;;;8.97;100.00
54503;BME280;40411;50.090;21.954;2024-03-02T03:08:38;64530.25;;;9.54;100.00
54503;BME280;40411;50.090;21.954;2024-03-02T03:11:04;64579.19;;;9.60;100.00
54503;BME280;40411;50.090;21.954;2024-03-02T03:13:34;64590.84;;;9.33;100.00
54503;BME280;40411;50.090;21.954;2024-03-02T03:16:00;64633.56;;;8.95;100.00
54503;BME280;40411;50.090;21.954;2024-03-02T03:18:26;64577.41;;;9.42;100.00
54503;BME280;40411;50.090;21.954;2024-03-02T03:20:52;64648.66;;;8.95;100.00
54503;BME280;40411;50.090;21.954;2024-03-02T03:23:18;64597.97;;;9.15;100.00
54503;BME280;40411;50.090;21.954;2024-03-02T03:25:44;64621.09;;;9.03;100.00
54503;BME280;40411;50.090;21.954;2024-03-02T03:28:10;64588.63;;;9.31;100.00
54503;BME280;40411;50.090;21.954;2024-03-02T03:30:38;64678.63;;;8.70;100.00
54503;BME280;40411;50.090;21.954;2024-03-02T03:33:05;64551.44;;;9.21;100.00
54503;BME280;40411;50.090;21.954;2024-03-02T03:35:34;64574.63;;;9.39;100.00
54503;BME280;40411;50.090;21.954;2024-03-02T03:38:00;64592.88;;;9.32;100.00
54503;BME280;40411;50.090;21.954;2024-03-02T03:40:27;64574.88;;;9.28;100.00
54503;BME280;40411;50.090;21.954;2024-03-02T03:42:53;64527.75;;;9.32;100.00
54503;BME280;40411;50.090;21.954;2024-03-02T03:45:19;64689.97;;;8.76;100.00
54503;BME280;40411;50.090;21.954;2024-03-02T03:47:46;64623.28;;;9.20;100.00
54503;BME280;40411;50.090;21.954;2024-03-02T03:50:11;64679.72;;;8.85;100.00
54503;BME280;40411;50.090;21.954;2024-03-02T03:52:38;64563.41;;;9.51;100.00
54503;BME280;40411;50.090;21.954;2024-03-02T03:55:04;64648.78;;;9.12;100.00
54503;BME280;40411;50.090;21.954;2024-03-02T03:57:31;64577.25;;;9.39;100.00
54503;BME280;40411;50.090;21.954;2024-03-02T03:59:56;64633.56;;;8.95;100.00
54503;BME280;40411;50.090;21.954;2024-03-02T04:02:22;64533.59;;;9.57;100.00
54503;BME280;40411;50.090;21.954;2024-03-02T04:04:50;64622.31;;;9.28;100.00
54503;BME280;40411;50.090;21.954;2024-03-02T04:07:16;64604.50;;;9.12;100.00
54503;BME280;40411;50.090;21.954;2024-03-02T04:09:42;64707.44;;;8.87;100.00
54503;BME280;40411;50.090;21.954;2024-03-02T04:12:08;64635.97;;;9.07;100.00
54503;BME280;40411;50.090;21.954;2024-03-02T04:14:33;64640.28;;;8.87;100.00
54503;BME280;40411;50.090;21.954;2024-03-02T04:16:59;64569.78;;;9.45;100.00
54503;BME280;40411;50.090;21.954;2024-03-02T04:19:25;64620.69;;;9.12;100.00
54503;BME280;40411;50.090;21.954;2024-03-02T04:21:51;64601.88;;;9.19;100.00
54503;BME280;40411;50.090;21.954;2024-03-02T04:24:17;64502.75;;;9.72;100.00
54503;BME280;40411;50.090;21.954;2024-03-02T04:26:43;64683.44;;;8.93;100.00
54503;BME280;40411;50.090;21.954;2024-03-02T04:29:09;64629.31;;;8.87;100.00
54503;BME280;40411;50.090;21.954;2024-03-02T04:31:35;64611.97;;;9.00;100.00
54503;BME280;40411;50.090;21.954;2024-03-02T04:34:00;64641.56;;;8.98;100.00
54503;BME280;40411;50.090;21.954;2024-03-02T04:36:26;64614.94;;;9.05;100.00
54503;BME280;40411;50.090;21.954;2024-03-02T04:38:52;64606.44;;;8.94;100.00
54503;BME280;40411;50.090;21.954;2024-03-02T04:41:18;64579.50;;;9.27;100.00
54503;BME280;40411;50.090;21.954;2024-03-02T04:43:44;64582.72;;;9.21;100.00
54503;BME280;40411;50.090;21.954;2024-03-02T04:46:10;64603.91;;;9.18;100.00
54503;BME280;40411;50.090;21.954;2024-03-02T04:48:36;64554.88;;;9.48;100.00
54503;BME280;40411;50.090;21.954;2024-03-02T04:51:02;64675.63;;;8.86;100.00
54503;BME280;40411;50.090;21.954;2024-03-02T04:53:28;64532.13;;;9.51;100.00
54503;BME280;40411;50.090;21.954;2024-03-02T04:55:54;64589.59;;;9.22;100.00
54503;BME280;40411;50.090;21.954;2024-03-02T04:58:45;64545.69;;;9.20;100.00
54503;BME280;40411;50.090;21.954;2024-03-02T05:01:12;64655.88;;;9.02;100.00
54503;BME280;40411;50.090;21.954;2024-03-02T05:03:37;64571.72;;;9.20;100.00
54503;BME280;40411;50.090;21.954;2024-03-02T05:06:04;64617.75;;;9.00;100.00
54503;BME280;40411;50.090;21.954;2024-03-02T05:08:29;64622.56;;;9.02;100.00
54503;BME280;40411;50.090;21.954;2024-03-02T05:10:56;64670.78;;;8.91;100.00
54503;BME280;40411;50.090;21.954;2024-03-02T05:13:42;64633.56;;;8.95;100.00
54503;BME280;40411;50.090;21.954;2024-03-02T05:16:08;64632.06;;;8.97;100.00
54503;BME280;40411;50.090;21.954;2024-03-02T05:18:34;64585.53;;;9.09;100.00
54503;BME280;40411;50.090;21.954;2024-03-02T05:21:00;64585.13;;;9.18;100.00
54503;BME280;40411;50.090;21.954;2024-03-02T05:23:25;64649.78;;;8.82;100.00
54503;BME280;40411;50.090;21.954;2024-03-02T05:25:51;64587.59;;;9.01;100.00
54503;BME280;40411;50.090;21.954;2024-03-02T05:28:17;64518.31;;;9.24;100.00
54503;BME280;40411;50.090;21.954;2024-03-02T05:30:43;64546.50;;;9.40;100.00
54503;BME280;40411;50.090;21.954;2024-03-02T05:33:09;64576.16;;;9.31;100.00
54503;BME280;40411;50.090;21.954;2024-03-02T05:35:35;64515.84;;;9.33;100.00
54503;BME280;40411;50.090;21.954;2024-03-02T05:38:01;64556.47;;;9.25;100.00
54503;BME280;40411;50.090;21.954;2024-03-02T05:40:27;64462.34;;;9.44;100.00
54503;BME280;40411;50.090;21.954;2024-03-02T05:42:52;64492.22;;;9.62;100.00
54503;BME280;40411;50.090;21.954;2024-03-02T05:45:18;64411.78;;;9.60;100.00
54503;BME280;40411;50.090;21.954;2024-03-02T05:47:44;64559.44;;;9.23;100.00
54503;BME280;40411;50.090;21.954;2024-03-02T05:50:10;64539.69;;;9.24;100.00
54503;BME280;40411;50.090;21.954;2024-03-02T05:52:36;64532.28;;;9.22;100.00
54503;BME280;40411;50.090;21.954;2024-03-02T05:55:02;64513.75;;;9.41;100.00
54503;BME280;40411;50.090;21.954;2024-03-02T05:57:28;64544.28;;;9.38;100.00
54503;BME280;40411;50.090;21.954;2024-03-02T06:00:09;64461.31;;;9.60;100.00
54503;BME280;40411;50.090;21.954;2024-03-02T06:02:39;64584.59;;;9.17;100.00
54503;BME280;40411;50.090;21.954;2024-03-02T06:05:06;64490.97;;;9.51;100.00
54503;BME280;40411;50.090;21.954;2024-03-02T06:07:34;64540.81;;;9.25;100.00
54503;BME280;40411;50.090;21.954;2024-03-02T06:10:00;64494.91;;;9.48;100.00
54503;BME280;40411;50.090;21.954;2024-03-02T06:12:26;64471.75;;;9.60;100.00
54503;BME280;40411;50.090;21.954;2024-03-02T06:14:52;64492.22;;;9.62;100.00
54503;BME280;40411;50.090;21.954;2024-03-02T06:17:18;64522.50;;;9.39;100.00
54503;BME280;40411;50.090;21.954;2024-03-02T06:19:45;64523.81;;;9.36;100.00
54503;BME280;40411;50.090;21.954;2024-03-02T06:22:10;64526.19;;;9.48;100.00
54503;BME280;40411;50.090;21.954;2024-03-02T06:24:37;64463.53;;;9.62;100.00
54503;BME280;40411;50.090;21.954;2024-03-02T06:27:07;64511.22;;;9.27;100.00
54503;BME280;40411;50.090;21.954;2024-03-02T06:29:33;64520.84;;;9.38;100.00
54503;BME280;40411;50.090;21.954;2024-03-02T06:31:59;64549.91;;;9.29;100.00
54503;BME280;40411;50.090;21.954;2024-03-02T06:34:26;64407.56;;;9.99;100.00
54503;BME280;40411;50.090;21.954;2024-03-02T06:36:51;64474.78;;;9.51;100.00
54503;BME280;40411;50.090;21.954;2024-03-02T06:39:17;64534.72;;;9.51;100.00
54503;BME280;40411;50.090;21.954;2024-03-02T06:41:43;64397.28;;;10.02;100.00
54503;BME280;40411;50.090;21.954;2024-03-02T06:44:09;64419.84;;;9.79;100.00
54503;BME280;40411;50.090;21.954;2024-03-02T06:46:35;64408.50;;;9.98;100.00
54503;BME280;40411;50.090;21.954;2024-03-02T06:49:01;64458.50;;;9.65;100.00
54503;BME280;40411;50.090;21.954;2024-03-02T06:51:28;64414.16;;;9.89;100.00
54503;BME280;40411;50.090;21.954;2024-03-02T06:53:54;64354.84;;;9.99;100.00
54503;BME280;40411;50.090;21.954;2024-03-02T06:56:21;64481.44;;;9.57;100.00
54503;BME280;40411;50.090;21.954;2024-03-02T06:58:47;64441.75;;;9.88;100.00
54503;BME280;40411;50.090;21.954;2024-03-02T07:01:12;64408.22;;;9.85;100.00
54503;BME280;40411;50.090;21.954;2024-03-02T07:03:38;64367.25;;;10.05;100.00
54503;BME280;40411;50.090;21.954;2024-03-02T07:06:08;64381.50;;;10.16;100.00
54503;BME280;40411;50.090;21.954;2024-03-02T07:08:34;64425.22;;;9.82;100.00
54503;BME280;40411;50.090;21.954;2024-03-02T07:11:00;64366.16;;;10.04;100.00
54503;BME280;40411;50.090;21.954;2024-03-02T07:13:26;64427.66;;;9.79;100.00
54503;BME280;40411;50.090;21.954;2024-03-02T07:15:52;64350.28;;;10.09;100.00
54503;BME280;40411;50.090;21.954;2024-03-02T07:18:37;64391.25;;;9.89;100.00
54503;BME280;40411;50.090;21.954;2024-03-02T07:21:09;64406.59;;;9.84;100.00
54503;BME280;40411;50.090;21.954;2024-03-02T07:23:36;64404.56;;;9.77;100.00
54503;BME280;40411;50.090;21.954;2024-03-02T07:26:02;64393.47;;;9.91;100.00
54503;BME280;40411;50.090;21.954;2024-03-02T07:28:29;64240.22;;;10.52;100.00
54503;BME280;40411;50.090;21.954;2024-03-02T07:31:04;64286.81;;;10.54;98.04
54503;BME280;40411;50.090;21.954;2024-03-02T07:33:31;64317.34;;;10.41;98.57
54503;BME280;40411;50.090;21.954;2024-03-02T07:35:57;64308.78;;;10.21;100.00
54503;BME280;40411;50.090;21.954;2024-03-02T07:38:25;64199.38;;;10.67;98.84
54503;BME280;40411;50.090;21.954;2024-03-02T07:40:51;64408.06;;;10.07;100.00
54503;BME280;40411;50.090;21.954;2024-03-02T07:43:18;64289.91;;;10.45;100.00
54503;BME280;40411;50.090;21.954;2024-03-02T07:45:45;64278.50;;;10.29;100.00
54503;BME280;40411;50.090;21.954;2024-03-02T07:48:11;64342.38;;;10.16;100.00
54503;BME280;40411;50.090;21.954;2024-03-02T07:50:37;64354.78;;;10.06;100.00
54503;BME280;40411;50.090;21.954;2024-03-02T07:53:05;64375.16;;;9.98;100.00
54503;BME280;40411;50.090;21.954;2024-03-02T07:55:31;64181.84;;;10.80;99.08
54503;BME280;40411;50.090;21.954;2024-03-02T07:57:57;64320.72;;;10.20;100.00
54503;BME280;40411;50.090;21.954;2024-03-02T08:00:23;64192.13;;;10.78;98.34
54503;BME280;40411;50.090;21.954;2024-03-02T08:02:50;64239.44;;;10.56;98.94
54503;BME280;40411;50.090;21.954;2024-03-02T08:05:19;64135.97;;;10.91;97.40
54503;BME280;40411;50.090;21.954;2024-03-02T08:07:45;64222.22;;;10.74;98.19
54503;BME280;40411;50.090;21.954;2024-03-02T08:10:12;64224.91;;;10.84;96.52
54503;BME280;40411;50.090;21.954;2024-03-02T08:12:38;64295.34;;;10.40;98.69
54503;BME280;40411;50.090;21.954;2024-03-02T08:15:04;64185.50;;;10.71;99.12
54503;BME280;40411;50.090;21.954;2024-03-02T08:17:31;64230.50;;;10.38;99.59
54503;BME280;40411;50.090;21.954;2024-03-02T08:19:57;64210.47;;;10.44;100.00
54503;BME280;40411;50.090;21.954;2024-03-02T08:22:23;64248.63;;;10.36;100.00
54503;BME280;40411;50.090;21.954;2024-03-02T08:24:51;64384.97;;;10.05;100.00
54503;BME280;40411;50.090;21.954;2024-03-02T08:27:17;64201.75;;;10.55;100.00
54503;BME280;40411;50.090;21.954;2024-03-02T08:29:43;64154.97;;;10.94;98.38
54503;BME280;40411;50.090;21.954;2024-03-02T08:32:09;64222.75;;;10.74;98.97
54503;BME280;40411;50.090;21.954;2024-03-02T08:34:34;64256.09;;;10.64;98.80
54503;BME280;40411;50.090;21.954;2024-03-02T08:37:03;64293.69;;;10.39;100.00
54503;BME280;40411;50.090;21.954;2024-03-02T08:39:29;64262.50;;;10.58;99.38
54503;BME280;40411;50.090;21.954;2024-03-02T08:41:56;64273.22;;;10.54;99.36
54503;BME280;40411;50.090;21.954;2024-03-02T08:44:21;64232.94;;;10.52;100.00
54503;BME280;40411;50.090;21.954;2024-03-02T08:46:47;64196.34;;;10.69;99.06
54503;BME280;40411;50.090;21.954;2024-03-02T08:49:13;64183.34;;;10.79;97.95
54503;BME280;40411;50.090;21.954;2024-03-02T08:51:40;64214.09;;;10.52;100.00
54503;BME280;40411;50.090;21.954;2024-03-02T08:54:05;64313.22;;;10.25;100.00
54503;BME280;40411;50.090;21.954;2024-03-02T08:56:32;64197.75;;;10.76;98.70
54503;BME280;40411;50.090;21.954;2024-03-02T08:58:57;64178.31;;;10.91;98.71
54503;BME280;40411;50.090;21.954;2024-03-02T09:01:24;64282.53;;;10.52;99.81
54503;BME280;40411;50.090;21.954;2024-03-02T09:03:49;64030.47;;;11.29;96.45
54503;BME280;40411;50.090;21.954;2024-03-02T09:06:16;64173.34;;;10.87;97.95
54503;BME280;40411;50.090;21.954;2024-03-02T09:08:45;64039.31;;;11.47;96.13
54503;BME280;40411;50.090;21.954;2024-03-02T09:11:11;64097.44;;;11.21;96.31
54503;BME280;40411;50.090;21.954;2024-03-02T09:13:38;64020.84;;;11.44;96.16
54503;BME280;40411;50.090;21.954;2024-03-02T09:16:04;64208.84;;;10.69;98.56
54503;BME280;40411;50.090;21.954;2024-03-02T09:18:31;64164.81;;;10.84;98.23
54503;BME280;40411;50.090;21.954;2024-03-02T09:20:57;64131.66;;;11.06;97.21
54503;BME280;40411;50.090;21.954;2024-03-02T09:23:22;64170.84;;;10.80;98.22
54503;BME280;40411;50.090;21.954;2024-03-02T09:25:48;64094.31;;;11.30;96.10
54503;BME280;40411;50.090;21.954;2024-03-02T09:28:17;64214.34;;;10.64;99.45
54503;BME280;40411;50.090;21.954;2024-03-02T09:30:44;63995.56;;;11.59;94.79
54503;BME280;40411;50.090;21.954;2024-03-02T09:33:10;64136.09;;;10.84;100.00
54503;BME280;40411;50.090;21.954;2024-03-02T09:35:36;64089.41;;;11.08;99.05
54503;BME280;40411;50.090;21.954;2024-03-02T09:38:01;64038.97;;;11.22;98.35
54503;BME280;40411;50.090;21.954;2024-03-02T09:40:29;64049.72;;;11.17;97.90
54503;BME280;40411;50.090;21.954;2024-03-02T09:42:56;64055.50;;;11.18;99.03
54503;BME280;40411;50.090;21.954;2024-03-02T09:45:23;64167.22;;;10.71;100.00
54503;BME280;40411;50.090;21.954;2024-03-02T09:47:49;64127.97;;;10.79;99.80
54503;BME280;40411;50.090;21.954;2024-03-02T09:50:16;64250.28;;;10.37;100.00
54503;BME280;40411;50.090;21.954;2024-03-02T09:52:42;64223.69;;;10.46;100.00
54503;BME280;40411;50.090;21.954;2024-03-02T09:55:09;64233.09;;;10.55;100.00
54503;BME280;40411;50.090;21.954;2024-03-02T09:57:35;64179.63;;;10.78;100.00
54503;BME280;40411;50.090;21.954;2024-03-02T10:00:01;64139.50;;;10.80;100.00
54503;BME280;40411;50.090;21.954;2024-03-02T10:02:27;64116.06;;;10.99;100.00
54503;BME280;40411;50.090;21.954;2024-03-02T10:04:53;64101.47;;;10.90;100.00
54503;BME280;40411;50.090;21.954;2024-03-02T10:07:19;64024.28;;;11.30;98.98
54503;BME280;40411;50.090;21.954;2024-03-02T10:09:47;64050.81;;;11.09;100.00
54503;BME280;40411;50.090;21.954;2024-03-02T10:12:16;64113.47;;;10.99;100.00
54503;BME280;40411;50.090;21.954;2024-03-02T10:14:43;64082.41;;;11.04;100.00
54503;BME280;40411;50.090;21.954;2024-03-02T10:17:11;64075.38;;;11.00;100.00
54503;BME280;40411;50.090;21.954;2024-03-02T10:19:44;64090.06;;;10.92;100.00
54503;BME280;40411;50.090;21.954;2024-03-02T10:22:10;64153.44;;;10.59;100.00
54503;BME280;40411;50.090;21.954;2024-03-02T10:24:39;64171.66;;;10.76;100.00
54503;BME280;40411;50.090;21.954;2024-03-02T10:27:07;63997.47;;;11.17;100.00
54503;BME280;40411;50.090;21.954;2024-03-02T10:29:38;64129.56;;;10.70;100.00
54503;BME280;40411;50.090;21.954;2024-03-02T10:32:05;64082.16;;;11.09;100.00
54503;BME280;40411;50.090;21.954;2024-03-02T10:34:32;64012.44;;;11.14;100.00
54503;BME280;40411;50.090;21.954;2024-03-02T10:36:58;64031.53;;;11.10;100.00
54503;BME280;40411;50.090;21.954;2024-03-02T10:39:25;63999.09;;;11.09;100.00
54503;BME280;40411;50.090;21.954;2024-03-02T10:41:52;63952.91;;;11.34;100.00
54503;BME280;40411;50.090;21.954;2024-03-02T10:44:18;63866.59;;;11.63;98.98
54503;BME280;40411;50.090;21.954;2024-03-02T10:46:45;63983.44;;;11.29;100.00
54503;BME280;40411;50.090;21.954;2024-03-02T10:49:12;63884.91;;;11.63;99.48
54503;BME280;40411;50.090;21.954;2024-03-02T10:51:38;63861.38;;;11.63;99.65
54503;BME280;40411;50.090;21.954;2024-03-02T10:54:05;63867.84;;;11.57;99.67
54503;BME280;40411;50.090;21.954;2024-03-02T10:56:33;63969.13;;;11.25;100.00
54503;BME280;40411;50.090;21.954;2024-03-02T11:01:55;63815.38;;;11.74;99.12
54503;BME280;40411;50.090;21.954;2024-03-02T11:04:25;63711.63;;;12.02;97.42
54503;BME280;40411;50.090;21.954;2024-03-02T11:06:51;63972.84;;;11.36;99.90
54503;BME280;40411;50.090;21.954;2024-03-02T11:09:20;64028.78;;;11.08;100.00
54503;BME280;40411;50.090;21.954;2024-03-02T11:11:52;63950.84;;;11.35;100.00
54503;BME280;40411;50.090;21.954;2024-03-02T11:14:24;63955.09;;;11.36;100.00
54503;BME280;40411;50.090;21.954;2024-03-02T11:16:51;63823.81;;;11.55;100.00
54503;BME280;40411;50.090;21.954;2024-03-02T11:19:18;63798.59;;;11.73;99.92
54503;BME280;40411;50.090;21.954;2024-03-02T11:21:45;63867.31;;;11.57;99.58
54503;BME280;40411;50.090;21.954;2024-03-02T11:26:52;63904.75;;;11.43;100.00
54503;BME280;40411;50.090;21.954;2024-03-02T11:32:03;63925.78;;;11.55;99.88
54503;BME280;40411;50.090;21.954;2024-03-02T11:34:31;63778.47;;;11.79;98.16
54503;BME280;40411;50.090;21.954;2024-03-02T11:36:57;63723.72;;;12.03;98.09
54503;BME280;40411;50.090;21.954;2024-03-02T11:39:26;63735.31;;;11.95;98.69
54503;BME280;40411;50.090;21.954;2024-03-02T11:41:52;63787.69;;;11.75;98.53
54503;BME280;40411;50.090;21.954;2024-03-02T11:44:18;63740.94;;;12.02;98.19
54503;BME280;40411;50.090;21.954;2024-03-02T11:46:45;63753.63;;;11.95;97.69
54503;BME280;40411;50.090;21.954;2024-03-02T11:49:14;63658.00;;;12.30;97.04
54503;BME280;40411;50.090;21.954;2024-03-02T11:51:54;63838.94;;;11.65;98.81
54503;BME280;40411;50.090;21.954;2024-03-02T11:54:27;63878.84;;;11.58;98.88
54503;BME280;40411;50.090;21.954;2024-03-02T11:56:56;63856.81;;;11.67;98.15
54503;BME280;40411;50.090;21.954;2024-03-02T11:59:23;63634.13;;;12.35;95.89
54503;BME280;40411;50.090;21.954;2024-03-02T12:01:50;63672.06;;;12.28;96.04
54503;BME280;40411;50.090;21.954;2024-03-02T12:04:16;63491.84;;;12.73;94.52
54503;BME280;40411;50.090;21.954;2024-03-02T12:06:41;63673.16;;;12.07;96.85
54503;BME280;40411;50.090;21.954;2024-03-02T12:09:09;63675.66;;;12.27;96.25
54503;BME280;40411;50.090;21.954;2024-03-02T12:11:37;63691.97;;;12.18;96.18
54503;BME280;40411;50.090;21.954;2024-03-02T12:14:03;63490.75;;;12.72;93.97
54503;BME280;40411;50.090;21.954;2024-03-02T12:16:30;63499.03;;;12.70;93.51
54503;BME280;40411;50.090;21.954;2024-03-02T12:18:56;63795.34;;;12.02;95.80
54503;BME280;40411;50.090;21.954;2024-03-02T12:21:21;63909.69;;;11.57;97.39
54503;BME280;40411;50.090;21.954;2024-03-02T12:23:47;63775.22;;;12.07;96.34
54503;BME280;40411;50.090;21.954;2024-03-02T12:26:15;63565.38;;;12.66;93.37
54503;BME280;40411;50.090;21.954;2024-03-02T12:28:41;63585.69;;;12.63;92.77
54503;BME280;40411;50.090;21.954;2024-03-02T12:31:08;63343.34;;;13.18;91.14
54503;BME280;40411;50.090;21.954;2024-03-02T12:33:34;63213.66;;;13.54;89.31
54503;BME280;40411;50.090;21.954;2024-03-02T12:36:00;63083.16;;;14.01;86.54
54503;BME280;40411;50.090;21.954;2024-03-02T12:38:26;63371.28;;;13.22;90.83
54503;BME280;40411;50.090;21.954;2024-03-02T12:40:52;63694.94;;;12.25;94.18
54503;BME280;40411;50.090;21.954;2024-03-02T12:43:18;63654.72;;;12.27;94.73
54503;BME280;40411;50.090;21.954;2024-03-02T12:45:44;63534.44;;;12.76;92.85
54503;BME280;40411;50.090;21.954;2024-03-02T12:48:10;63567.78;;;12.73;92.61
54503;BME280;40411;50.090;21.954;2024-03-02T12:50:36;63634.00;;;12.54;93.45
54503;BME280;40411;50.090;21.954;2024-03-02T12:53:02;63602.00;;;12.53;93.44
54503;BME280;40411;50.090;21.954;2024-03-02T12:55:29;63573.44;;;12.59;94.03